createdAt,value
2019-04-01T06:24:35.975Z,11024.00
2019-04-01T06:25:27.644Z,11180.00
2019-04-01T06:28:11.186Z,11600.00
2019-04-01T06:29:09.233Z,11768.00
2019-04-01T06:31:15.703Z,12084.00
2019-04-01T06:32:15.719Z,12252.00
2019-04-01T06:33:15.657Z,12404.00
2019-04-01T06:34:26.360Z,12592.00
2019-04-01T06:35:26.928Z,12764.00
2019-04-01T06:36:15.510Z,12920.00
2019-04-01T06:37:15.638Z,13148.00
2019-04-01T06:38:16.128Z,13384.00
2019-04-01T06:41:16.078Z,14192.00
2019-04-01T06:42:15.513Z,14336.00
2019-04-01T06:44:15.440Z,14764.00
2019-04-01T06:45:15.460Z,15016.00
2019-04-01T06:46:15.406Z,15272.00
2019-04-01T06:47:15.339Z,15388.00
2019-04-01T06:48:15.360Z,15488.00
2019-04-01T06:49:20.127Z,16032.00
2019-04-01T06:50:16.696Z,16288.00
2019-04-01T06:52:18.153Z,16736.00
2019-04-01T06:53:18.164Z,16960.00
2019-04-01T06:54:20.114Z,17248.00
2019-04-01T06:55:15.346Z,17568.00
2019-04-01T06:56:17.078Z,17888.00
2019-04-01T06:57:15.208Z,18176.00
2019-04-01T06:58:15.277Z,18368.00
2019-04-01T06:59:15.347Z,18528.00
2019-04-01T07:00:15.146Z,18592.00
2019-04-01T07:01:17.130Z,18784.00
2019-04-01T07:02:15.101Z,18944.00
2019-04-01T07:03:18.352Z,19104.00
2019-04-01T07:04:15.131Z,19168.00
2019-04-01T07:05:15.182Z,19328.00
2019-04-01T07:06:15.233Z,19584.00
2019-04-01T07:07:19.378Z,19744.00
2019-04-01T07:08:14.995Z,19904.00
2019-04-01T07:09:15.237Z,20064.00
2019-04-01T07:10:15.106Z,20288.00
2019-04-01T07:11:15.721Z,20448.00
2019-04-01T07:12:15.708Z,20640.00
2019-04-01T07:13:15.124Z,20864.00
2019-04-01T07:14:19.628Z,21056.00
2019-04-01T07:15:15.097Z,21248.00
2019-04-01T07:16:16.180Z,21472.00
2019-04-01T07:18:15.174Z,22016.00
2019-04-01T07:19:15.374Z,22400.00
2019-04-01T07:20:16.683Z,22880.00
2019-04-01T07:21:15.169Z,23392.00
2019-04-01T07:22:16.648Z,23808.00
2019-04-01T07:23:15.162Z,24448.00
2019-04-01T07:24:15.109Z,25056.00
2019-04-01T07:25:15.628Z,25344.00
2019-04-01T07:26:15.009Z,25632.00
2019-04-01T07:27:15.728Z,25568.00
2019-04-01T07:28:29.931Z,25728.00
2019-04-01T07:29:19.748Z,26016.00
2019-04-01T07:30:19.726Z,26080.00
2019-04-01T07:31:15.046Z,26208.00
2019-04-01T07:32:15.101Z,26144.00
2019-04-01T07:34:16.669Z,25824.00
2019-04-01T07:35:15.709Z,25632.00
2019-04-01T07:38:15.120Z,25728.00
2019-04-01T07:39:15.784Z,25920.00
2019-04-01T07:40:15.079Z,26176.00
2019-04-01T07:41:15.099Z,26272.00
2019-04-01T07:43:15.304Z,26656.00
2019-04-01T07:44:15.140Z,26816.00
2019-04-01T07:45:15.617Z,26848.00
2019-04-01T07:46:17.765Z,26752.00
2019-04-01T07:47:15.640Z,26912.00
2019-04-01T07:48:15.600Z,26944.00
2019-04-01T07:50:16.177Z,27104.00
2019-04-01T07:53:15.741Z,27424.00
2019-04-01T07:54:18.315Z,27552.00
2019-04-01T07:55:16.799Z,27808.00
2019-04-01T07:56:15.599Z,27968.00
2019-04-01T07:58:15.080Z,28320.00
2019-04-01T07:59:15.064Z,28448.00
2019-04-01T08:00:15.777Z,28512.00
2019-04-01T08:02:15.615Z,28864.00
2019-04-01T08:06:15.091Z,29408.00
2019-04-01T08:10:15.105Z,29952.00
2019-04-01T08:11:15.076Z,30144.00
2019-04-01T08:12:15.124Z,30368.00
2019-04-01T08:14:15.624Z,30624.00
2019-04-01T08:15:15.105Z,30752.00
2019-04-01T08:16:15.111Z,30688.00
2019-04-01T08:20:16.691Z,30816.00
2019-04-01T08:21:15.723Z,30880.00
2019-04-01T08:23:15.127Z,31072.00
2019-04-01T08:24:15.095Z,31232.00
2019-04-01T08:25:15.130Z,31264.00
2019-04-01T08:27:16.233Z,31488.00
2019-04-01T08:28:15.774Z,31712.00
2019-04-01T08:29:29.123Z,31680.00
2019-04-01T08:30:15.121Z,31776.00
2019-04-01T08:31:15.152Z,31968.00
2019-04-01T08:32:15.169Z,32096.00
2019-04-01T08:33:15.756Z,32096.00
2019-04-01T08:35:15.154Z,32352.00
2019-04-01T08:36:15.121Z,32544.00
2019-04-01T08:38:15.174Z,32704.00
2019-04-01T08:40:15.203Z,32896.00
2019-04-01T08:41:16.803Z,33120.00
2019-04-01T08:42:15.165Z,33184.00
2019-04-01T08:43:15.169Z,33344.00
2019-04-01T08:44:15.207Z,33440.00
2019-04-01T08:46:15.178Z,33664.00
2019-04-01T08:49:15.202Z,33600.00
2019-04-01T08:50:15.221Z,33792.00
2019-04-01T08:51:15.208Z,33824.00
2019-04-01T08:52:15.232Z,33920.00
2019-04-01T08:53:15.268Z,34080.00
2019-04-01T08:55:15.201Z,34336.00
2019-04-01T08:56:15.249Z,34368.00
2019-04-01T08:57:15.797Z,34528.00
2019-04-01T08:58:16.822Z,34688.00
2019-04-01T08:59:15.863Z,34784.00
2019-04-01T09:01:15.803Z,34976.00
2019-04-01T09:02:18.196Z,35072.00
2019-04-01T09:03:15.257Z,35264.00
2019-04-01T09:04:15.298Z,35360.00
2019-04-01T09:06:15.289Z,35648.00
2019-04-01T09:07:15.307Z,35808.00
2019-04-01T09:08:15.365Z,35968.00
2019-04-01T09:09:15.336Z,36064.00
2019-04-01T09:10:15.337Z,36448.00
2019-04-01T09:11:15.285Z,36768.00
2019-04-01T09:12:15.758Z,36768.00
2019-04-01T09:13:16.813Z,36704.00
2019-04-01T09:14:15.437Z,37152.00
2019-04-01T09:15:15.887Z,37312.00
2019-04-01T09:16:15.872Z,37408.00
2019-04-01T09:17:16.331Z,37696.00
2019-04-01T09:18:15.357Z,37792.00
2019-04-01T09:21:16.312Z,38400.00
2019-04-01T09:22:15.386Z,38560.00
2019-04-01T09:23:15.794Z,38624.00
2019-04-01T09:24:15.623Z,38656.00
2019-04-01T09:25:16.328Z,38880.00
2019-04-01T09:26:15.405Z,39168.00
2019-04-01T09:27:15.427Z,39296.00
2019-04-01T09:29:15.739Z,39744.00
2019-04-01T09:30:18.522Z,39872.00
2019-04-01T09:33:15.435Z,39872.00
2019-04-01T09:34:16.012Z,40160.00
2019-04-01T09:38:16.038Z,40544.00
2019-04-01T09:39:15.483Z,40672.00
2019-04-01T09:40:16.278Z,41056.00
2019-04-01T09:42:20.300Z,42304.00
2019-04-01T09:43:16.263Z,41760.00
2019-04-01T09:44:16.044Z,41696.00
2019-04-01T09:46:17.337Z,41632.00
2019-04-01T09:47:16.243Z,41568.00
2019-04-01T09:49:15.557Z,41696.00
2019-04-01T09:50:15.586Z,42144.00
2019-04-01T09:51:20.273Z,42464.00
2019-04-01T09:52:15.621Z,43104.00
2019-04-01T09:53:15.591Z,43296.00
2019-04-01T09:55:16.281Z,42432.00
2019-04-01T10:00:15.663Z,42688.00
2019-04-01T10:01:15.729Z,42816.00
2019-04-01T10:03:15.712Z,42752.00
2019-04-01T10:04:15.758Z,42688.00
2019-04-01T10:06:15.718Z,42912.00
2019-04-01T10:07:17.354Z,43072.00
2019-04-01T10:08:15.778Z,43296.00
2019-04-01T10:09:15.710Z,43584.00
2019-04-01T10:12:15.773Z,43360.00
2019-04-01T10:13:18.353Z,43200.00
2019-04-01T10:14:15.787Z,43168.00
2019-04-01T10:16:15.821Z,43264.00
2019-04-01T10:17:15.769Z,43456.00
2019-04-01T10:18:15.834Z,43712.00
2019-04-01T10:19:20.737Z,43840.00
2019-04-01T10:20:15.817Z,43936.00
2019-04-01T10:21:20.337Z,44000.00
2019-04-01T10:22:16.415Z,44160.00
2019-04-01T10:24:15.818Z,44352.00
2019-04-01T10:26:15.823Z,44672.00
2019-04-01T10:27:16.842Z,44480.00
2019-04-01T10:28:16.866Z,44800.00
2019-04-01T10:30:15.852Z,45472.00
2019-04-01T10:31:15.940Z,45632.00
2019-04-01T10:33:15.898Z,45760.00
2019-04-01T10:35:17.797Z,45888.00
2019-04-01T10:36:15.910Z,46144.00
2019-04-01T10:37:15.934Z,46176.00
2019-04-01T10:38:15.974Z,46304.00
2019-04-01T10:41:15.977Z,46464.00
2019-04-01T10:42:15.973Z,46720.00
2019-04-01T10:44:15.988Z,48128.00
2019-04-01T10:46:16.059Z,47936.00
2019-04-01T10:48:16.058Z,47808.00
2019-04-01T10:49:16.075Z,47680.00
2019-04-01T10:50:16.122Z,47520.00
2019-04-01T10:51:16.049Z,47712.00
2019-04-01T10:52:16.165Z,48000.00
2019-04-01T10:53:16.262Z,48096.00
2019-04-01T10:56:25.907Z,48288.00
2019-04-01T10:58:33.206Z,48032.00
2019-04-01T11:08:23.565Z,48768.00
2019-04-01T11:09:37.770Z,48448.00
2019-04-01T11:11:23.519Z,48608.00
2019-04-01T11:12:24.230Z,48832.00
2019-04-01T11:13:23.559Z,48608.00
2019-04-01T11:15:23.599Z,48928.00
2019-04-01T11:16:23.624Z,49024.00
2019-04-01T11:17:23.991Z,48704.00
2019-04-01T11:18:23.598Z,48608.00
2019-04-01T11:20:23.619Z,47968.00
2019-04-01T11:22:23.635Z,47616.00
2019-04-01T11:23:23.634Z,47424.00
2019-04-01T11:25:23.671Z,47776.00
2019-04-01T11:26:23.659Z,48160.00
2019-04-01T11:29:25.632Z,47968.00
2019-04-01T11:30:24.237Z,47680.00
2019-04-01T11:31:24.268Z,47264.00
2019-04-01T11:32:23.751Z,47168.00
2019-04-01T11:33:23.761Z,47200.00
2019-04-01T11:34:23.735Z,47456.00
2019-04-01T11:37:23.770Z,47168.00
2019-04-01T11:38:24.580Z,47488.00
2019-04-01T11:39:23.794Z,48224.00
2019-04-01T11:40:23.791Z,47776.00
2019-04-01T11:41:23.790Z,47808.00
2019-04-01T11:42:23.894Z,47520.00
2019-04-01T11:43:23.965Z,47296.00
2019-04-01T11:46:23.854Z,47552.00
2019-04-01T11:47:23.860Z,47776.00
2019-04-01T11:48:24.431Z,48064.00
2019-04-01T11:49:24.962Z,48512.00
2019-04-01T11:50:25.114Z,49088.00
2019-04-01T11:51:32.426Z,49376.00
2019-04-01T11:52:23.914Z,49504.00
2019-04-01T11:53:23.894Z,49088.00
2019-04-01T11:55:23.923Z,49344.00
2019-04-01T11:56:26.424Z,50048.00
2019-04-01T12:00:57.302Z,52192.00
2019-04-01T12:01:55.376Z,53504.00
2019-04-01T12:08:09.796Z,55168.00
2019-04-01T12:34:15.995Z,83648.00
2019-04-01T12:35:08.067Z,83840.00
2019-04-01T12:41:06.049Z,80896.00
2019-04-01T12:41:57.529Z,78688.00
2019-04-01T12:45:03.392Z,73344.00
2019-04-01T12:48:45.046Z,64576.00
2019-04-01T12:49:42.723Z,62528.00
2019-04-01T13:11:19.812Z,43360.00
2019-04-01T13:12:18.958Z,43296.00
2019-04-01T13:21:44.927Z,40480.00
2019-04-01T13:23:17.669Z,39584.00
